createdAt,value
2018-11-22T00:01:20.639Z,13.50
2018-11-22T00:03:50.551Z,15.00
2018-11-22T00:08:48.161Z,13.47
2018-11-22T00:13:49.248Z,13.73
2018-11-22T00:21:20.774Z,13.87
2018-11-22T00:23:51.059Z,13.77
2018-11-22T00:31:20.788Z,15.23
2018-11-22T00:36:21.923Z,14.33
2018-11-22T00:41:23.247Z,15.10
2018-11-22T00:48:54.979Z,15.23
2018-11-22T00:53:57.545Z,14.73
2018-11-22T00:56:27.704Z,14.50
2018-11-22T01:01:26.835Z,13.93
2018-11-22T01:11:35.381Z,14.03
2018-11-22T01:16:36.340Z,14.47
2018-11-22T01:21:33.679Z,13.90
2018-11-22T01:26:34.808Z,13.47
2018-11-22T01:31:35.697Z,14.10
2018-11-22T01:36:34.483Z,13.23
2018-11-22T01:41:52.183Z,12.87
2018-11-22T01:46:53.512Z,14.50
2018-11-22T01:51:53.307Z,13.57
2018-11-22T01:59:26.091Z,13.30
2018-11-22T02:01:56.263Z,13.50
2018-11-22T02:06:57.758Z,13.63
2018-11-22T02:11:56.429Z,13.77
2018-11-22T02:16:55.364Z,13.73
2018-11-22T02:21:56.964Z,13.13
2018-11-22T02:26:58.746Z,13.50
2018-11-22T02:32:00.448Z,14.00
2018-11-22T02:37:01.336Z,12.43
2018-11-22T02:42:00.666Z,13.47
2018-11-22T02:49:32.173Z,13.63
2018-11-22T02:52:02.195Z,14.03
2018-11-22T02:57:03.334Z,13.27
2018-11-22T03:02:04.064Z,13.23
2018-11-22T03:07:05.379Z,12.70
2018-11-22T03:12:05.091Z,12.47
2018-11-22T03:24:39.966Z,13.93
2018-11-22T03:29:41.582Z,13.13
2018-11-22T03:34:43.193Z,13.13
2018-11-22T03:39:40.753Z,13.67
2018-11-22T03:44:41.464Z,13.37
2018-11-22T03:52:14.373Z,12.30
2018-11-22T03:54:44.468Z,12.77
2018-11-22T03:59:43.966Z,12.10
2018-11-22T04:04:45.021Z,12.73
2018-11-22T04:12:17.954Z,12.07
2018-11-22T04:17:18.796Z,12.00
2018-11-22T04:19:47.121Z,12.77
2018-11-22T04:24:48.185Z,12.63
2018-11-22T04:29:49.342Z,12.27
2018-11-22T04:34:50.979Z,12.50
2018-11-22T04:42:24.506Z,12.00
2018-11-22T04:44:54.616Z,12.90
2018-11-22T04:54:59.303Z,13.20
2018-11-22T05:00:00.523Z,14.07
2018-11-22T05:05:01.806Z,14.83
2018-11-22T05:09:59.058Z,13.33
2018-11-22T05:14:59.980Z,12.77
2018-11-22T05:19:58.772Z,13.43
2018-11-22T05:25:00.429Z,12.77
2018-11-22T05:29:59.466Z,12.50
2018-11-22T05:35:00.206Z,13.10
2018-11-22T05:40:00.921Z,12.17
2018-11-22T05:45:02.413Z,12.00
2018-11-22T05:50:01.918Z,12.57
2018-11-22T05:55:03.250Z,13.57
2018-11-22T06:02:33.731Z,13.17
2018-11-22T06:10:02.926Z,12.40
2018-11-22T06:15:05.738Z,12.57
2018-11-22T06:25:16.317Z,12.23
2018-11-22T06:30:15.664Z,12.47
2018-11-22T06:32:45.778Z,13.97
2018-11-22T06:37:44.747Z,13.20
2018-11-22T06:42:44.412Z,14.83
2018-11-22T06:50:18.002Z,13.70
2018-11-22T06:52:48.264Z,14.10
2018-11-22T06:57:47.965Z,13.43
2018-11-22T07:02:48.699Z,15.27
2018-11-22T07:07:49.933Z,14.30
2018-11-22T07:12:50.922Z,15.17
2018-11-22T07:20:21.031Z,14.13
2018-11-22T07:25:21.838Z,15.37
2018-11-22T07:30:22.213Z,14.83
2018-11-22T07:35:21.894Z,14.70
2018-11-22T07:42:54.928Z,15.40
2018-11-22T07:45:25.493Z,15.77
2018-11-22T07:50:27.335Z,14.77
2018-11-22T07:58:00.983Z,14.60
2018-11-22T08:00:31.739Z,14.33
2018-11-22T08:08:04.865Z,14.00
2018-11-22T08:13:07.017Z,13.03
2018-11-22T08:15:35.777Z,14.97
2018-11-22T08:20:35.203Z,14.47
2018-11-22T08:25:35.559Z,12.90
2018-11-22T08:35:38.852Z,13.70
2018-11-22T08:40:40.092Z,16.17
2018-11-22T08:48:13.948Z,18.30
2018-11-22T08:50:44.713Z,18.90
2018-11-22T08:55:45.767Z,13.47
2018-11-22T09:03:19.483Z,14.63
2018-11-22T09:05:49.464Z,13.57
2018-11-22T09:18:31.385Z,13.57
2018-11-22T09:21:02.206Z,12.17
2018-11-22T09:26:03.802Z,12.33
2018-11-22T09:28:39.341Z,12.00
2018-11-22T09:31:09.352Z,13.33
2018-11-22T09:36:09.139Z,13.13
2018-11-22T09:41:10.720Z,13.17
2018-11-22T09:51:16.203Z,12.77
2018-11-22T09:56:15.322Z,13.77
2018-11-22T10:01:16.818Z,12.47
2018-11-22T10:06:16.432Z,14.07
2018-11-22T10:18:51.525Z,13.53
2018-11-22T10:23:53.405Z,14.03
2018-11-22T10:26:24.359Z,13.60
2018-11-22T10:31:25.040Z,13.73
2018-11-22T10:36:26.530Z,13.10
2018-11-22T10:41:26.183Z,14.07
2018-11-22T10:48:59.118Z,14.33
2018-11-22T10:51:27.769Z,14.73
2018-11-22T10:56:29.559Z,15.47
2018-11-22T11:04:01.811Z,16.93
2018-11-22T11:09:02.866Z,16.37
2018-11-22T11:14:03.968Z,17.27
2018-11-22T11:19:03.539Z,15.60
2018-11-22T12:16:36.394Z,16.37
2018-11-22T12:19:05.495Z,14.47
2018-11-22T12:21:34.413Z,15.17
2018-11-22T12:24:04.160Z,15.37
2018-11-22T12:26:32.756Z,14.93
2018-11-22T12:29:01.427Z,15.40
2018-11-22T12:31:30.111Z,15.23
2018-11-22T12:34:04.085Z,14.93
2018-11-22T12:36:38.004Z,14.90
2018-11-22T12:39:13.034Z,15.70
2018-11-22T12:41:42.367Z,13.60
2018-11-22T12:44:12.842Z,14.43
2018-11-22T12:46:41.863Z,14.90
2018-11-22T12:49:10.628Z,14.50
2018-11-22T12:51:39.390Z,14.97
2018-11-22T12:54:12.694Z,14.97
2018-11-22T12:56:41.327Z,14.63
2018-11-22T12:59:10.050Z,14.60
2018-11-22T13:01:38.821Z,14.23
2018-11-22T13:04:07.869Z,13.07
2018-11-22T13:06:36.737Z,14.10
2018-11-22T13:09:08.189Z,13.90
2018-11-22T13:11:37.633Z,13.17
2018-11-22T13:14:07.718Z,14.13
2018-11-22T13:16:36.358Z,14.27
2018-11-22T13:19:05.786Z,14.60
2018-11-22T13:21:34.528Z,13.03
2018-11-22T13:24:07.134Z,13.03
2018-11-22T13:26:42.124Z,14.10
2018-11-22T13:29:11.088Z,15.17
2018-11-22T13:31:39.817Z,14.03
2018-11-22T13:34:09.073Z,13.23
2018-11-22T13:36:38.327Z,14.10
2018-11-22T13:39:09.831Z,13.77
2018-11-22T13:41:38.945Z,13.67
2018-11-22T13:44:09.560Z,13.50
2018-11-22T13:46:38.246Z,13.20
2018-11-22T13:49:07.628Z,14.30
2018-11-22T13:51:36.770Z,14.07
2018-11-22T13:54:08.553Z,14.33
2018-11-22T13:56:44.488Z,14.10
2018-11-22T13:59:13.721Z,14.07
2018-11-22T14:01:44.946Z,14.17
2018-11-22T14:04:14.655Z,14.13
2018-11-22T14:06:43.370Z,13.97
2018-11-22T14:09:12.217Z,14.30
2018-11-22T14:11:41.300Z,13.63
2018-11-22T14:14:09.951Z,14.73
2018-11-22T14:16:38.716Z,14.83
2018-11-22T14:19:07.612Z,13.30
2018-11-22T14:21:44.495Z,13.67
2018-11-22T14:24:15.769Z,14.17
2018-11-22T14:26:45.960Z,14.23
2018-11-22T14:29:14.627Z,14.13
2018-11-22T14:31:43.457Z,13.83
2018-11-22T14:34:15.638Z,13.07
2018-11-22T14:36:44.403Z,14.33
2018-11-22T14:39:13.367Z,14.07
2018-11-22T14:41:42.084Z,13.90
2018-11-22T14:44:10.763Z,14.60
2018-11-22T14:46:39.462Z,16.30
2018-11-22T14:49:08.169Z,13.53
2018-11-22T14:51:41.593Z,13.63
2018-11-22T14:54:10.224Z,13.67
2018-11-22T14:56:39.179Z,13.70
2018-11-22T14:59:08.703Z,14.87
2018-11-22T15:01:37.414Z,14.70
2018-11-22T15:04:11.137Z,13.77
2018-11-22T15:06:39.889Z,12.67
2018-11-22T15:09:09.980Z,14.63
2018-11-22T15:11:38.875Z,14.37
2018-11-22T15:14:07.520Z,15.50
2018-11-22T15:16:36.229Z,14.33
2018-11-22T15:19:05.002Z,15.07
2018-11-22T15:21:34.355Z,15.33
2018-11-22T15:24:03.320Z,14.67
2018-11-22T15:26:32.094Z,14.57
2018-11-22T15:29:00.773Z,13.93
2018-11-22T15:31:29.509Z,12.73
2018-11-22T15:33:58.220Z,13.50
2018-11-22T15:36:26.872Z,14.83
2018-11-22T15:38:58.929Z,13.43
2018-11-22T15:41:27.767Z,14.40
2018-11-22T15:43:56.433Z,12.97
2018-11-22T15:46:25.250Z,13.57
2018-11-22T15:48:54.030Z,13.60
2018-11-22T15:51:22.695Z,13.73
2018-11-22T15:53:52.141Z,13.93
2018-11-22T15:56:20.916Z,12.93
2018-11-22T15:58:49.640Z,13.90
2018-11-22T16:01:18.343Z,13.00
2018-11-22T16:03:47.088Z,13.67
2018-11-22T16:06:15.741Z,14.20
2018-11-22T16:08:44.917Z,13.83
2018-11-22T16:11:14.977Z,14.10
2018-11-22T16:13:43.021Z,12.97
2018-11-22T16:16:11.752Z,13.27
2018-11-22T16:18:40.506Z,12.73
2018-11-22T16:21:09.316Z,13.50
2018-11-22T16:23:39.244Z,13.43
2018-11-22T16:26:07.923Z,14.00
2018-11-22T16:28:38.417Z,13.60
2018-11-22T16:31:07.862Z,12.93
2018-11-22T16:33:36.583Z,13.43
2018-11-22T16:36:10.244Z,13.60
2018-11-22T16:38:40.143Z,13.33
2018-11-22T16:41:08.880Z,13.80
2018-11-22T16:43:38.325Z,14.23
2018-11-22T16:46:07.772Z,14.27
2018-11-22T16:48:36.768Z,13.47
2018-11-22T16:51:05.977Z,14.37
2018-11-22T16:53:35.711Z,14.47
2018-11-22T16:56:04.473Z,14.90
2018-11-22T16:58:34.202Z,14.33
2018-11-22T17:01:01.993Z,15.17
2018-11-22T17:03:31.433Z,14.33
2018-11-22T17:06:01.153Z,14.00
2018-11-22T17:08:31.007Z,14.03
2018-11-22T17:11:00.089Z,14.03
2018-11-22T17:13:28.770Z,13.43
2018-11-22T17:15:57.469Z,13.73
2018-11-22T17:18:26.121Z,16.37
2018-11-22T17:20:55.295Z,14.70
2018-11-22T17:23:24.165Z,16.60
2018-11-22T17:25:52.972Z,20.50
2018-11-22T17:28:22.007Z,21.83
2018-11-22T17:30:52.147Z,19.67
2018-11-22T17:33:20.627Z,20.90
2018-11-22T17:35:49.326Z,19.67
2018-11-22T17:38:18.054Z,27.27
2018-11-22T17:40:48.378Z,28.23
2018-11-22T17:43:17.111Z,26.30
2018-11-22T17:45:47.506Z,31.47
2018-11-22T17:48:18.748Z,30.77
2018-11-22T17:50:48.095Z,27.40
2018-11-22T17:53:16.937Z,28.43
2018-11-22T17:55:50.193Z,25.97
2018-11-22T17:58:19.579Z,24.40
2018-11-22T18:00:50.138Z,22.53
2018-11-22T18:03:19.516Z,22.90
2018-11-22T18:05:49.005Z,21.73
2018-11-22T18:08:18.410Z,19.40
2018-11-22T18:10:47.954Z,21.83
2018-11-22T18:13:17.152Z,27.40
2018-11-22T18:15:51.779Z,20.70
2018-11-22T18:18:21.454Z,20.77
2018-11-22T18:20:50.134Z,18.30
2018-11-22T18:23:18.803Z,16.97
2018-11-22T18:25:49.087Z,16.43
2018-11-22T18:28:16.164Z,15.23
2018-11-22T18:30:46.067Z,15.57
2018-11-22T18:33:17.267Z,27.80
2018-11-22T18:35:46.271Z,24.73
2018-11-22T18:38:14.979Z,22.13
2018-11-22T18:40:44.495Z,20.30
2018-11-22T18:43:13.219Z,19.30
2018-11-22T18:45:43.257Z,18.83
2018-11-22T18:48:13.983Z,18.13
2018-11-22T18:50:43.310Z,19.40
2018-11-22T18:53:12.199Z,18.87
2018-11-22T18:55:40.825Z,23.00
2018-11-22T18:58:09.528Z,37.67
2018-11-22T19:00:39.895Z,27.67
2018-11-22T19:03:10.134Z,27.43
2018-11-22T19:05:38.923Z,23.47
2018-11-22T19:08:07.663Z,19.70
2018-11-22T19:10:38.694Z,19.20
2018-11-22T19:13:08.922Z,17.77
2018-11-22T19:15:39.315Z,17.93
2018-11-22T19:18:08.892Z,17.80
2018-11-22T19:20:39.031Z,18.10
2018-11-22T19:23:08.908Z,18.83
2018-11-22T19:25:37.665Z,18.37
2018-11-22T19:28:07.538Z,18.23
2018-11-22T19:30:37.706Z,18.20
2018-11-22T19:33:08.248Z,16.93
2018-11-22T19:35:39.171Z,17.80
2018-11-22T19:38:07.848Z,18.57
2018-11-22T19:40:38.680Z,17.70
2018-11-22T19:43:08.571Z,17.60
2018-11-22T19:45:39.347Z,18.03
2018-11-22T19:48:08.891Z,18.87
2018-11-22T19:50:37.571Z,19.13
2018-11-22T19:53:08.812Z,19.03
2018-11-22T19:55:38.311Z,18.73
2018-11-22T19:58:08.930Z,16.97
2018-11-22T20:00:37.759Z,18.07
2018-11-22T20:03:07.463Z,18.77
2018-11-22T20:05:37.524Z,19.97
2018-11-22T20:08:07.969Z,18.97
2018-11-22T20:10:38.853Z,18.90
2018-11-22T20:13:07.606Z,19.07
2018-11-22T20:15:36.350Z,23.77
2018-11-22T20:18:06.540Z,21.07
2018-11-22T20:20:35.245Z,20.77
2018-11-22T20:23:03.997Z,19.33
2018-11-22T20:25:32.767Z,21.63
2018-11-22T20:28:01.453Z,19.73
2018-11-22T20:30:32.613Z,19.30
2018-11-22T20:33:01.520Z,19.93
2018-11-22T20:35:31.577Z,20.40
2018-11-22T20:38:00.311Z,20.87
2018-11-22T20:40:29.593Z,21.90
2018-11-22T20:42:58.634Z,21.47
2018-11-22T20:45:28.398Z,19.50
2018-11-22T20:47:58.806Z,19.90
2018-11-22T20:50:28.288Z,21.27
2018-11-22T20:52:57.030Z,24.73
2018-11-22T20:55:27.449Z,23.77
2018-11-22T20:57:58.536Z,25.60
2018-11-22T21:00:30.882Z,23.73
2018-11-22T21:02:59.574Z,21.70
2018-11-22T21:05:30.005Z,21.33
2018-11-22T21:07:58.958Z,20.47
2018-11-22T21:10:29.166Z,19.73
2018-11-22T21:12:57.921Z,19.50
2018-11-22T21:15:28.787Z,28.93
2018-11-22T21:17:59.249Z,24.07
2018-11-22T21:20:30.700Z,21.50
2018-11-22T21:22:59.482Z,20.77
2018-11-22T21:25:30.247Z,21.27
2018-11-22T21:28:01.196Z,20.00
2018-11-22T21:30:31.277Z,21.07
2018-11-22T21:33:02.283Z,20.20
2018-11-22T21:35:31.740Z,19.20
2018-11-22T21:38:01.404Z,21.07
2018-11-22T21:40:30.988Z,19.83
2018-11-22T21:42:59.692Z,21.23
2018-11-22T21:45:28.860Z,18.97
2018-11-22T21:47:58.217Z,19.40
2018-11-22T21:50:28.004Z,20.97
2018-11-22T21:52:56.900Z,19.83
2018-11-22T21:55:26.789Z,19.40
2018-11-22T21:57:57.739Z,19.23
2018-11-22T22:00:30.968Z,18.60
2018-11-22T22:03:02.543Z,19.87
2018-11-22T22:05:31.284Z,20.63
2018-11-22T22:08:00.489Z,20.33
2018-11-22T22:10:29.168Z,18.90
2018-11-22T22:12:58.343Z,19.37
2018-11-22T22:15:28.475Z,19.23
2018-11-22T22:17:58.104Z,19.97
2018-11-22T22:20:31.541Z,18.67
2018-11-22T22:23:00.309Z,18.87
2018-11-22T22:25:29.536Z,18.17
2018-11-22T22:27:58.851Z,18.77
2018-11-22T22:30:29.101Z,18.60
2018-11-22T22:32:59.236Z,19.70
2018-11-22T22:35:27.943Z,19.90
2018-11-22T22:37:56.679Z,23.83
2018-11-22T22:40:26.632Z,20.83
2018-11-22T22:42:56.614Z,20.13
2018-11-22T22:45:26.361Z,20.53
2018-11-22T22:47:55.498Z,20.50
2018-11-22T22:50:25.644Z,21.37
2018-11-22T22:52:55.846Z,21.90
2018-11-22T22:55:24.544Z,21.77
2018-11-22T22:57:53.270Z,21.50
2018-11-22T23:00:29.326Z,21.13
2018-11-22T23:03:04.292Z,21.53
2018-11-22T23:05:33.576Z,20.87
2018-11-22T23:08:02.258Z,21.23
2018-11-22T23:10:31.032Z,22.83
2018-11-22T23:13:00.304Z,20.77
2018-11-22T23:15:29.885Z,18.90
2018-11-22T23:17:58.589Z,19.67
2018-11-22T23:20:28.822Z,19.50
2018-11-22T23:22:57.459Z,21.27
2018-11-22T23:25:27.810Z,22.17
2018-11-22T23:27:56.518Z,21.47
2018-11-22T23:30:26.555Z,20.50
2018-11-22T23:32:56.686Z,21.47
2018-11-22T23:35:26.152Z,19.73
2018-11-22T23:37:55.016Z,20.60
2018-11-22T23:40:25.306Z,20.57
2018-11-22T23:42:54.036Z,20.63
2018-11-22T23:45:24.448Z,19.70
2018-11-22T23:47:53.163Z,20.47
2018-11-22T23:50:23.433Z,19.73
2018-11-22T23:52:53.412Z,19.80
2018-11-22T23:55:22.150Z,18.53
2018-11-22T23:57:50.863Z,20.10
